Newark, New York
Current Conditions -  °F | °C
As of 3:31 AM on Friday 28 Nov 2014 (Local Time) from KPEO Reporting Station
Broken Clouds Broken Clouds  
Wind Chill: 19°   Ceiling: 3400
Heat Index: 27°   Visibility: 10mi
Dew Point: 22°   Wind: 7mph
Humidity: 81%   Direction: 300°WNW
Pressure: 30.11"   Gusts: NA
Location:  43.05°N, 77.09°W
Report Text: KPEO 280831Z AUTO 30006KT 10SM BKN034 M03/M06 A3011 RMK AO2 SNE24 P0000 T10281056
Loading
Personal Weather Stations






























Interactive Weather Map New forecast layout! Learn more

10-Day Weather Forecast

Advertisements
Track Severe Weather on mobile